Time;durP1;ratioP1;P1;durP2;ratioP2;P2;SDS_P1;SDS_P2;PMS_P1;PMS_P2;Temp;Humidity;BMP_temperature;BMP_pressure;BME280_temperature;BME280_humidity;BME280_pressure;Samples;Min_cycle;Max_cycle;Signal;HPM_P1;HPM_P2
2023/07/20 00:00:53;;;;;;;4.88;1.55;;;18.50;97.00;;;;;;5106847;28;20072;-74
2023/07/20 00:03:22;;;;;;;3.50;1.58;;;18.60;97.00;;;;;;5107850;28;20031;-73
2023/07/20 00:05:49;;;;;;;5.37;1.83;;;18.60;97.40;;;;;;5107558;28;20059;-73
2023/07/20 00:08:15;;;;;;;4.13;1.77;;;18.50;97.10;;;;;;5109331;28;20083;-73
2023/07/20 00:10:42;;;;;;;4.22;1.85;;;18.60;97.40;;;;;;5108230;28;20110;-73
2023/07/20 00:13:08;;;;;;;5.70;1.98;;;18.60;97.30;;;;;;5108011;27;20043;-73
2023/07/20 00:15:33;;;;;;;8.73;2.03;;;18.50;98.20;;;;;;5103894;28;20035;-73
2023/07/20 00:17:59;;;;;;;3.15;1.27;;;18.50;97.60;;;;;;5110139;28;20043;-74
2023/07/20 00:20:25;;;;;;;7.20;1.90;;;18.50;97.80;;;;;;5106858;28;20059;-75
2023/07/20 00:22:51;;;;;;;3.88;1.73;;;18.40;98.10;;;;;;5110169;28;20085;-72
2023/07/20 00:25:18;;;;;;;4.85;1.88;;;18.40;98.20;;;;;;5106647;28;20032;-74
2023/07/20 00:27:44;;;;;;;3.40;1.75;;;18.40;98.10;;;;;;5107194;28;20047;-72
2023/07/20 00:30:10;;;;;;;4.72;2.08;;;18.40;98.10;;;;;;5105861;28;20131;-74
2023/07/20 00:32:36;;;;;;;5.15;2.08;;;18.40;98.00;;;;;;5108892;28;20472;-75
2023/07/20 00:35:01;;;;;;;10.10;1.70;;;18.40;98.40;;;;;;5111381;27;20045;-71
2023/07/20 00:37:30;;;;;;;7.13;3.08;;;18.40;98.80;;;;;;5111628;27;20035;-72
2023/07/20 00:39:55;;;;;;;3.70;2.15;;;18.40;98.40;;;;;;5106910;28;20147;-73
2023/07/20 00:42:21;;;;;;;5.32;2.15;;;18.40;98.50;;;;;;5112658;27;20601;-75
2023/07/20 00:44:47;;;;;;;8.15;2.25;;;18.30;98.40;;;;;;5108581;28;20058;-75
2023/07/20 00:47:13;;;;;;;4.28;1.85;;;18.40;97.80;;;;;;5098035;28;20543;-72
2023/07/20 00:49:39;;;;;;;5.05;1.90;;;18.40;98.00;;;;;;5106580;28;20051;-73
2023/07/20 00:52:07;;;;;;;4.35;2.28;;;18.30;97.30;;;;;;5101994;28;20030;-72
2023/07/20 00:54:33;;;;;;;4.35;1.90;;;18.40;96.90;;;;;;5107982;27;20488;-76
2023/07/20 00:57:00;;;;;;;6.13;2.17;;;18.40;96.80;;;;;;5106556;28;20049;-74
2023/07/20 00:59:26;;;;;;;4.15;2.35;;;18.30;96.10;;;;;;5108718;28;20649;-74
2023/07/20 01:01:52;;;;;;;6.32;2.17;;;18.30;96.00;;;;;;5106854;28;20027;-74
2023/07/20 01:04:18;;;;;;;7.25;2.17;;;18.30;96.00;;;;;;5082832;28;20667;-73
2023/07/20 01:06:58;;;;;;;8.55;2.30;;;18.20;95.70;;;;;;5110513;27;20040;-75
2023/07/20 01:09:42;;;;;;;3.38;2.10;;;18.20;95.60;;;;;;5107789;28;20047;-74
2023/07/20 01:12:33;;;;;;;7.35;2.53;;;18.10;95.70;;;;;;5106173;27;20023;-74
2023/07/20 01:14:59;;;;;;;5.80;2.10;;;18.10;95.60;;;;;;5081732;28;20448;-74
2023/07/20 01:17:25;;;;;;;6.22;2.33;;;18.10;96.20;;;;;;5105930;28;20024;-75
2023/07/20 01:19:50;;;;;;;3.45;2.20;;;18.00;95.70;;;;;;5108749;28;20050;-73
2023/07/20 01:22:52;;;;;;;9.23;2.40;;;18.00;95.90;;;;;;5104514;28;20027;-74
2023/07/20 01:25:42;;;;;;;9.05;2.28;;;18.00;95.80;;;;;;5103751;28;20031;-73
2023/07/20 01:28:26;;;;;;;4.07;1.83;;;18.00;95.70;;;;;;5095317;28;20041;-74
2023/07/20 01:31:13;;;;;;;7.25;2.38;;;17.90;95.80;;;;;;5106469;28;20154;-74
2023/07/20 01:33:40;;;;;;;5.68;2.45;;;17.80;95.70;;;;;;5107324;28;20051;-73
2023/07/20 01:36:07;;;;;;;5.07;2.20;;;17.80;96.20;;;;;;5106725;28;20038;-74
2023/07/20 01:38:32;;;;;;;4.70;2.17;;;17.80;96.30;;;;;;5108348;28;20039;-73
2023/07/20 01:40:59;;;;;;;4.30;2.33;;;17.70;96.40;;;;;;5106565;28;20031;-74
2023/07/20 01:43:24;;;;;;;5.75;2.55;;;17.70;96.50;;;;;;5107205;28;20036;-73
2023/07/20 01:45:50;;;;;;;6.13;2.55;;;17.70;96.90;;;;;;5107173;28;20027;-73
2023/07/20 01:48:16;;;;;;;5.53;2.47;;;17.60;97.10;;;;;;5105017;28;20101;-74
2023/07/20 01:50:42;;;;;;;4.40;2.30;;;17.50;97.40;;;;;;5100606;28;20045;-73
2023/07/20 01:53:08;;;;;;;12.85;2.53;;;17.40;97.60;;;;;;5088030;28;20066;-70
2023/07/20 01:55:33;;;;;;;3.50;2.30;;;17.40;97.60;;;;;;5085929;28;20109;-74
2023/07/20 01:58:00;;;;;;;7.55;2.65;;;17.30;97.90;;;;;;5105051;28;20094;-71
2023/07/20 02:00:26;;;;;;;6.75;2.85;;;17.20;98.30;;;;;;5108137;28;20118;-74
2023/07/20 02:02:52;;;;;;;7.28;2.70;;;17.10;98.50;;;;;;5105570;28;20103;-72
2023/07/20 02:05:18;;;;;;;5.93;2.70;;;17.00;98.60;;;;;;5099270;28;20176;-74
2023/07/20 02:07:43;;;;;;;7.35;3.05;;;17.00;98.80;;;;;;5106467;28;20031;-71
2023/07/20 02:10:09;;;;;;;6.18;2.58;;;17.00;98.90;;;;;;5104988;28;20770;-72
2023/07/20 02:12:35;;;;;;;6.00;2.45;;;17.00;98.90;;;;;;5107499;28;20789;-74
2023/07/20 02:15:02;;;;;;;8.88;2.67;;;17.00;98.90;;;;;;5105713;28;20031;-74
2023/07/20 02:17:28;;;;;;;5.10;2.40;;;16.90;99.00;;;;;;5099317;28;20027;-79
2023/07/20 02:19:54;;;;;;;5.03;2.45;;;16.90;99.30;;;;;;5109664;28;20034;-75
2023/07/20 02:22:20;;;;;;;4.47;2.63;;;16.80;99.40;;;;;;5080427;28;20377;-74
2023/07/20 02:24:46;;;;;;;5.40;2.50;;;16.80;99.60;;;;;;5104433;28;20638;-73
2023/07/20 02:27:12;;;;;;;8.02;2.75;;;16.70;99.80;;;;;;5097381;28;20119;-74
2023/07/20 02:29:38;;;;;;;7.13;3.00;;;16.60;99.80;;;;;;5105150;28;20035;-74
2023/07/20 02:32:04;;;;;;;6.43;2.67;;;16.60;99.90;;;;;;5103351;28;20380;-77
2023/07/20 02:34:29;;;;;;;4.35;2.15;;;16.50;99.90;;;;;;5097229;28;20688;-75
2023/07/20 02:37:00;;;;;;;4.78;2.30;;;16.50;99.90;;;;;;5096651;28;20066;-75
2023/07/20 02:39:27;;;;;;;8.75;2.80;;;16.50;99.90;;;;;;5101395;28;20035;-74
2023/07/20 02:41:53;;;;;;;6.45;2.67;;;16.50;99.90;;;;;;5090223;28;20032;-73
2023/07/20 02:44:19;;;;;;;5.38;2.70;;;16.40;99.90;;;;;;5088830;28;20096;-75
2023/07/20 02:46:45;;;;;;;8.27;2.35;;;16.40;99.90;;;;;;5098475;28;20028;-75
2023/07/20 02:49:10;;;;;;;5.13;2.47;;;16.40;99.90;;;;;;5098653;28;20067;-73
2023/07/20 02:51:36;;;;;;;5.45;2.67;;;16.30;99.90;;;;;;5124880;27;20027;-79
2023/07/20 02:54:01;;;;;;;4.20;2.67;;;16.40;99.90;;;;;;5115704;27;20034;-76
2023/07/20 02:56:27;;;;;;;9.02;2.70;;;16.40;99.90;;;;;;5112233;27;20027;-77
2023/07/20 02:58:53;;;;;;;5.32;2.83;;;16.30;99.90;;;;;;5115444;27;20027;-76
2023/07/20 03:01:18;;;;;;;7.30;2.90;;;16.30;99.90;;;;;;5106466;28;20039;-72
2023/07/20 03:03:46;;;;;;;7.80;2.65;;;16.30;99.90;;;;;;5108812;27;20020;-70
2023/07/20 03:06:16;;;;;;;7.38;2.50;;;16.30;99.90;;;;;;5109871;28;20388;-71
2023/07/20 03:08:47;;;;;;;7.15;2.72;;;16.30;99.90;;;;;;5111494;28;20027;-72
2023/07/20 03:11:13;;;;;;;;;;;16.30;99.90;;;;;;5111099;28;20059;-71
2023/07/20 03:13:39;;;;;;;6.13;2.70;;;16.40;99.90;;;;;;5111623;28;19920;-72
2023/07/20 03:16:05;;;;;;;5.32;2.50;;;16.40;99.90;;;;;;5110193;28;20784;-72
2023/07/20 03:18:30;;;;;;;7.15;2.90;;;16.40;99.90;;;;;;5105256;28;20660;-70
2023/07/20 03:20:56;;;;;;;8.38;2.65;;;16.40;99.90;;;;;;5110115;28;20031;-72
2023/07/20 03:23:22;;;;;;;5.43;2.38;;;16.40;99.90;;;;;;5109839;28;20032;-71
2023/07/20 03:25:47;;;;;;;7.20;2.97;;;16.30;99.90;;;;;;5117217;27;20038;-71
2023/07/20 03:28:13;;;;;;;5.75;2.60;;;16.40;99.90;;;;;;5110722;28;20483;-70
2023/07/20 03:30:39;;;;;;;7.50;2.65;;;16.30;99.90;;;;;;5109749;28;20028;-72
2023/07/20 03:33:04;;;;;;;3.63;2.10;;;16.30;99.90;;;;;;5115925;27;20024;-71
2023/07/20 03:35:31;;;;;;;5.20;2.70;;;16.30;99.90;;;;;;5108811;28;20031;-71
2023/07/20 03:37:57;;;;;;;6.25;2.78;;;16.30;99.90;;;;;;5110623;28;20413;-73
2023/07/20 03:40:22;;;;;;;5.57;2.72;;;16.30;99.90;;;;;;5108875;28;20028;-71
2023/07/20 03:42:48;;;;;;;6.55;2.92;;;16.20;99.90;;;;;;5110918;28;20040;-71
2023/07/20 03:45:14;;;;;;;6.18;2.90;;;16.30;99.90;;;;;;5109380;28;20019;-70
2023/07/20 03:47:40;;;;;;;8.38;2.50;;;16.20;99.90;;;;;;5115772;27;20073;-72
2023/07/20 03:50:06;;;;;;;7.15;2.63;;;16.10;99.90;;;;;;5109408;28;20071;-73
2023/07/20 03:52:32;;;;;;;6.47;2.67;;;16.00;99.90;;;;;;5109559;28;20027;-72
2023/07/20 03:54:57;;;;;;;4.88;2.63;;;15.90;99.90;;;;;;5118204;27;20393;-71
2023/07/20 03:57:23;;;;;;;7.93;2.80;;;15.80;99.90;;;;;;5108092;28;20039;-72
2023/07/20 03:59:49;;;;;;;6.10;3.00;;;15.80;99.90;;;;;;5100287;28;20163;-73
2023/07/20 04:02:14;;;;;;;6.00;2.45;;;15.80;99.90;;;;;;5110994;27;20452;-70
2023/07/20 04:04:40;;;;;;;7.57;2.70;;;15.80;99.90;;;;;;5107682;28;20056;-71
2023/07/20 04:07:07;;;;;;;10.20;2.97;;;15.90;99.90;;;;;;5108839;27;20058;-72
2023/07/20 04:09:33;;;;;;;10.85;2.85;;;16.00;99.90;;;;;;5110974;27;20028;-71
2023/07/20 04:11:58;;;;;;;4.40;2.65;;;16.00;99.90;;;;;;5107234;28;20043;-71
2023/07/20 04:14:24;;;;;;;8.43;2.50;;;16.10;99.90;;;;;;5108304;28;20031;-72
2023/07/20 04:16:51;;;;;;;5.13;2.53;;;16.10;99.90;;;;;;5109377;27;20034;-72
2023/07/20 04:19:17;;;;;;;9.25;2.80;;;16.20;99.90;;;;;;5108300;28;20040;-69
2023/07/20 04:21:43;;;;;;;6.90;2.58;;;16.20;99.90;;;;;;5083844;28;20032;-72
2023/07/20 04:24:09;;;;;;;7.65;2.60;;;16.20;99.90;;;;;;5110475;27;20425;-71
2023/07/20 04:26:35;;;;;;;8.50;2.80;;;16.30;99.90;;;;;;5107995;27;20571;-71
2023/07/20 04:29:01;;;;;;;7.82;3.13;;;16.30;99.90;;;;;;5100585;28;20028;-72
2023/07/20 04:31:26;;;;;;;5.63;2.25;;;16.30;99.90;;;;;;5109935;27;20565;-71
2023/07/20 04:33:52;;;;;;;5.93;2.55;;;16.30;99.90;;;;;;5108522;27;20109;-71
2023/07/20 04:36:19;;;;;;;8.65;2.55;;;16.30;99.90;;;;;;5107613;28;20814;-72
2023/07/20 04:38:47;;;;;;;5.78;2.78;;;16.40;99.90;;;;;;5106802;28;20061;-71
2023/07/20 04:41:13;;;;;;;6.95;3.03;;;16.40;99.90;;;;;;5107317;28;20079;-70
2023/07/20 04:43:45;;;;;;;7.60;2.72;;;16.40;99.90;;;;;;5082905;28;20132;-71
2023/07/20 04:46:11;;;;;;;5.68;2.40;;;16.50;99.90;;;;;;5101654;28;20038;-72
2023/07/20 04:48:37;;;;;;;6.28;2.38;;;16.60;99.90;;;;;;5112588;27;20236;-72
2023/07/20 04:51:03;;;;;;;5.65;2.65;;;16.80;99.90;;;;;;5108087;28;20030;-71
2023/07/20 04:53:29;;;;;;;4.55;2.45;;;16.90;99.90;;;;;;5100610;28;20051;-72
2023/07/20 04:55:54;;;;;;;6.40;2.50;;;17.00;99.90;;;;;;5110531;27;20084;-73
2023/07/20 04:58:21;;;;;;;11.48;2.53;;;17.00;99.90;;;;;;5105330;28;20774;-69
2023/07/20 05:00:49;;;;;;;16.88;2.63;;;17.00;99.90;;;;;;5102045;28;20023;-71
2023/07/20 05:03:14;;;;;;;6.03;2.60;;;16.80;99.90;;;;;;5112653;27;20032;-72
2023/07/20 05:05:40;;;;;;;7.70;2.42;;;16.80;99.90;;;;;;5106904;28;20373;-71
2023/07/20 05:08:06;;;;;;;7.40;3.50;;;16.80;99.90;;;;;;5106060;27;20024;-71
2023/07/20 05:10:32;;;;;;;6.00;2.67;;;17.00;99.90;;;;;;5107207;28;20356;-71
2023/07/20 05:12:58;;;;;;;5.43;2.65;;;17.00;99.90;;;;;;5099182;28;20479;-69
2023/07/20 05:15:24;;;;;;;6.97;2.67;;;16.90;99.90;;;;;;5106498;28;20539;-71
2023/07/20 05:17:49;;;;;;;6.28;2.70;;;16.80;99.90;;;;;;5108270;28;20102;-71
2023/07/20 05:20:15;;;;;;;5.32;2.35;;;16.80;99.90;;;;;;5108593;28;20400;-72
2023/07/20 05:22:41;;;;;;;6.70;2.95;;;16.70;99.90;;;;;;5113476;27;20047;-72
2023/07/20 05:25:08;;;;;;;7.97;3.00;;;16.70;99.90;;;;;;5093764;28;20043;-71
2023/07/20 05:27:37;;;;;;;9.45;2.95;;;16.80;99.90;;;;;;5108002;28;20031;-72
2023/07/20 05:30:04;;;;;;;5.38;2.67;;;16.80;99.90;;;;;;5108875;28;20629;-71
2023/07/20 05:32:30;;;;;;;9.73;3.13;;;16.80;99.90;;;;;;5107845;28;20039;-71
2023/07/20 05:34:56;;;;;;;11.13;3.20;;;16.90;99.90;;;;;;5108406;28;20047;-70
2023/07/20 05:37:21;;;;;;;6.95;2.72;;;16.90;99.90;;;;;;5107179;28;20031;-70
2023/07/20 05:39:47;;;;;;;5.43;2.67;;;17.00;99.90;;;;;;5108607;28;20365;-71
2023/07/20 05:42:13;;;;;;;7.60;2.92;;;17.10;99.90;;;;;;5109094;28;20136;-69
2023/07/20 05:44:39;;;;;;;10.68;3.17;;;17.10;99.90;;;;;;5108381;28;20219;-71
2023/07/20 05:47:05;;;;;;;6.60;2.95;;;17.20;99.90;;;;;;5108782;28;20036;-70
2023/07/20 05:49:31;;;;;;;9.20;3.20;;;17.30;99.90;;;;;;5107495;28;20400;-71
2023/07/20 05:51:57;;;;;;;5.95;3.15;;;17.30;99.90;;;;;;5107728;28;20081;-70
2023/07/20 05:54:26;;;;;;;7.22;3.13;;;17.40;99.90;;;;;;5111518;28;20096;-69
2023/07/20 05:56:51;;;;;;;9.05;2.85;;;17.50;99.90;;;;;;5105871;28;20495;-71
2023/07/20 05:59:17;;;;;;;7.63;3.10;;;17.50;99.90;;;;;;5106137;28;20032;-72
2023/07/20 06:01:48;;;;;;;5.28;2.58;;;17.70;99.90;;;;;;5107910;28;20508;-73
2023/07/20 06:04:14;;;;;;;4.75;2.47;;;17.70;99.90;;;;;;5108475;28;20357;-70
2023/07/20 06:06:40;;;;;;;7.40;2.42;;;17.90;99.90;;;;;;5108694;28;20084;-70
2023/07/20 06:09:09;;;;;;;9.05;2.80;;;18.00;99.90;;;;;;5100776;28;20395;-71
2023/07/20 06:11:35;;;;;;;6.03;2.67;;;18.00;99.90;;;;;;5107548;28;20019;-72
2023/07/20 06:14:01;;;;;;;6.85;3.00;;;18.00;99.90;;;;;;5106544;28;20046;-72
2023/07/20 06:16:27;;;;;;;5.65;2.40;;;18.10;99.90;;;;;;5106375;28;20368;-71
2023/07/20 06:18:52;;;;;;;5.68;2.40;;;18.10;99.90;;;;;;5112552;28;20585;-69
2023/07/20 06:21:18;;;;;;;9.35;3.05;;;18.20;99.90;;;;;;5107694;28;20035;-72
2023/07/20 06:23:44;;;;;;;4.95;2.70;;;18.20;99.90;;;;;;5107787;28;20146;-69
2023/07/20 06:26:10;;;;;;;5.32;2.95;;;18.10;99.90;;;;;;5112785;27;20024;-72
2023/07/20 06:28:36;;;;;;;11.57;2.70;;;18.20;99.90;;;;;;5111326;28;20043;-72
2023/07/20 06:31:03;;;;;;;5.18;2.50;;;18.20;99.90;;;;;;5110555;27;20220;-72
2023/07/20 06:33:29;;;;;;;5.55;2.53;;;18.30;99.90;;;;;;5106720;28;20118;-71
2023/07/20 06:35:54;;;;;;;10.95;2.85;;;18.40;99.90;;;;;;5111593;28;20419;-72
2023/07/20 06:38:20;;;;;;;4.13;2.22;;;18.50;99.90;;;;;;5112527;28;20455;-71
2023/07/20 06:40:46;;;;;;;5.65;2.30;;;18.60;99.90;;;;;;5111095;28;20727;-72
2023/07/20 06:43:12;;;;;;;5.75;2.58;;;18.90;99.90;;;;;;5112095;27;20032;-71
2023/07/20 06:45:38;;;;;;;6.00;2.67;;;18.90;99.90;;;;;;5112374;27;20027;-73
2023/07/20 06:48:04;;;;;;;7.03;2.42;;;18.70;99.90;;;;;;5093230;28;20094;-70
2023/07/20 06:50:30;;;;;;;4.68;2.50;;;18.50;99.90;;;;;;5109863;28;20070;-73
2023/07/20 06:52:55;;;;;;;7.25;2.90;;;18.50;99.90;;;;;;5111934;28;20089;-72
2023/07/20 06:55:21;;;;;;;7.63;2.60;;;18.60;99.90;;;;;;5119807;27;20433;-71
2023/07/20 06:57:46;;;;;;;5.75;2.40;;;18.80;99.90;;;;;;5110713;28;20028;-72
2023/07/20 07:00:13;;;;;;;5.88;2.47;;;18.80;99.90;;;;;;5117226;27;20028;-71
2023/07/20 07:02:38;;;;;;;6.65;2.50;;;18.80;99.90;;;;;;5110025;28;20032;-72
2023/07/20 07:05:05;;;;;;;14.73;2.55;;;19.00;99.90;;;;;;5111205;28;20034;-72
2023/07/20 07:07:31;;;;;;;7.63;2.35;;;19.00;99.90;;;;;;5110604;28;20049;-72
2023/07/20 07:09:56;;;;;;;5.20;2.55;;;19.00;99.90;;;;;;5110469;28;20032;-72
2023/07/20 07:12:22;;;;;;;6.88;2.75;;;18.90;99.90;;;;;;5111396;28;20092;-71
2023/07/20 07:14:48;;;;;;;6.80;2.83;;;18.90;99.90;;;;;;5101925;28;20047;-71
2023/07/20 07:17:14;;;;;;;7.45;2.70;;;19.20;99.90;;;;;;5110790;28;20032;-73
2023/07/20 07:19:40;;;;;;;5.65;2.30;;;19.30;99.90;;;;;;5110502;28;20062;-72
2023/07/20 07:22:06;;;;;;;4.88;2.45;;;19.30;99.90;;;;;;5110005;28;20040;-72
2023/07/20 07:24:33;;;;;;;6.00;2.33;;;19.60;99.90;;;;;;5114530;27;20338;-71
2023/07/20 07:27:03;;;;;;;5.28;2.20;;;19.60;99.30;;;;;;5110897;28;20115;-70
2023/07/20 07:29:29;;;;;;;8.68;2.50;;;19.50;99.90;;;;;;5110241;28;20147;-70
2023/07/20 07:31:55;;;;;;;6.28;2.22;;;19.70;99.90;;;;;;5110987;28;20502;-71
2023/07/20 07:34:20;;;;;;;6.00;2.30;;;19.80;99.90;;;;;;5107775;28;20043;-71
2023/07/20 07:36:47;;;;;;;4.78;2.55;;;20.00;99.50;;;;;;5107901;28;20030;-72
2023/07/20 07:39:12;;;;;;;6.45;2.25;;;20.10;99.20;;;;;;5108072;28;20119;-71
2023/07/20 07:41:38;;;;;;;4.55;2.17;;;20.10;98.90;;;;;;5110071;28;20420;-72
2023/07/20 07:44:04;;;;;;;6.13;2.15;;;20.20;98.10;;;;;;5110826;28;20408;-71
2023/07/20 07:46:30;;;;;;;8.07;2.47;;;20.20;98.30;;;;;;5109433;28;20024;-71
2023/07/20 07:48:56;;;;;;;15.73;2.67;;;20.30;98.90;;;;;;5110193;28;20131;-72
2023/07/20 07:51:21;;;;;;;5.25;2.50;;;20.30;98.00;;;;;;5111039;27;21759;-70
2023/07/20 07:53:49;;;;;;;15.18;2.38;;;20.40;98.10;;;;;;5112228;27;20031;-70
2023/07/20 07:56:14;;;;;;;5.60;2.60;;;20.40;97.40;;;;;;5114772;27;20027;-70
2023/07/20 07:58:40;;;;;;;6.13;2.65;;;20.10;98.00;;;;;;5089583;28;20096;-71
2023/07/20 08:01:06;;;;;;;7.25;2.10;;;20.00;97.60;;;;;;5108206;28;20024;-71
2023/07/20 08:03:31;;;;;;;5.10;2.60;;;20.10;98.10;;;;;;5109577;28;20080;-70
2023/07/20 08:05:58;;;;;;;4.28;1.90;;;20.30;98.70;;;;;;5109620;28;20051;-72
2023/07/20 08:08:24;;;;;;;6.18;2.40;;;20.40;98.20;;;;;;5119913;27;20118;-71
2023/07/20 08:10:53;;;;;;;13.05;2.83;;;20.40;97.80;;;;;;5109813;27;20131;-72
2023/07/20 08:13:18;;;;;;;6.00;2.40;;;20.40;98.20;;;;;;5110323;28;20058;-73
2023/07/20 08:15:50;;;;;;;5.68;2.50;;;20.40;97.70;;;;;;5109170;28;20059;-71
2023/07/20 08:18:16;;;;;;;5.25;2.35;;;20.40;98.10;;;;;;5108703;27;20068;-72
2023/07/20 08:20:44;;;;;;;7.93;2.85;;;20.60;97.30;;;;;;5109082;28;20039;-72
2023/07/20 08:23:10;;;;;;;8.80;2.60;;;20.70;96.50;;;;;;5109672;28;20016;-71
2023/07/20 08:25:43;;;;;;;6.57;2.42;;;20.70;97.50;;;;;;5109246;27;20057;-72
2023/07/20 08:28:18;;;;;;;8.43;2.63;;;20.90;96.80;;;;;;5109391;28;20496;-72
2023/07/20 08:30:46;;;;;;;5.35;2.40;;;21.10;96.30;;;;;;5108332;28;20074;-71
2023/07/20 08:33:14;;;;;;;7.43;2.50;;;21.00;95.70;;;;;;5090226;28;20435;-71
2023/07/20 08:35:40;;;;;;;6.03;2.20;;;21.00;95.80;;;;;;5075300;28;20027;-72
2023/07/20 08:38:07;;;;;;;3.28;2.00;;;21.20;96.30;;;;;;5109462;28;20035;-72
2023/07/20 08:40:34;;;;;;;4.53;2.30;;;21.40;95.90;;;;;;5108234;28;20023;-70
2023/07/20 08:43:00;;;;;;;8.10;2.72;;;21.20;94.70;;;;;;5109066;28;20438;-72
2023/07/20 08:45:31;;;;;;;7.00;2.40;;;21.10;94.60;;;;;;5100790;27;20059;-72
2023/07/20 08:47:58;;;;;;;4.25;2.25;;;21.00;94.00;;;;;;5109278;28;20106;-71
2023/07/20 08:50:26;;;;;;;6.60;2.42;;;21.10;95.20;;;;;;5108675;28;20058;-70
2023/07/20 08:52:53;;;;;;;6.85;2.15;;;20.90;94.90;;;;;;5108640;28;20811;-71
2023/07/20 08:55:23;;;;;;;8.35;2.58;;;21.10;94.90;;;;;;5111640;27;20044;-71
2023/07/20 08:57:52;;;;;;;6.43;2.20;;;21.50;94.10;;;;;;5099390;28;20065;-72
2023/07/20 09:00:20;;;;;;;7.63;2.42;;;21.70;94.10;;;;;;5108928;28;20280;-71
2023/07/20 09:02:47;;;;;;;4.63;2.53;;;21.70;93.40;;;;;;5107935;28;20551;-71
2023/07/20 09:05:14;;;;;;;4.75;2.42;;;21.30;94.60;;;;;;5108182;28;20055;-70
2023/07/20 09:07:40;;;;;;;5.45;2.25;;;21.30;93.30;;;;;;5108273;28;20386;-70
2023/07/20 09:10:07;;;;;;;3.83;2.17;;;21.40;94.10;;;;;;5107000;28;20115;-71
2023/07/20 09:12:41;;;;;;;5.88;2.80;;;21.70;93.60;;;;;;5108736;27;20035;-70
2023/07/20 09:15:07;;;;;;;7.28;2.90;;;22.10;93.90;;;;;;5108672;28;20039;-70
2023/07/20 09:17:33;;;;;;;10.25;2.72;;;22.00;93.60;;;;;;5106291;28;20081;-69
2023/07/20 09:20:07;;;;;;;4.63;2.42;;;21.70;92.50;;;;;;5108756;28;20058;-71
2023/07/20 09:22:34;;;;;;;6.38;2.40;;;21.80;92.70;;;;;;5105065;28;20024;-71
2023/07/20 09:25:00;;;;;;;6.53;2.28;;;22.00;92.80;;;;;;5117177;27;20113;-71
2023/07/20 09:27:46;;;;;;;5.88;2.60;;;22.10;92.40;;;;;;5101362;28;20111;-72
2023/07/20 09:30:14;;;;;;;7.45;2.13;;;22.00;92.30;;;;;;5107713;28;20360;-69
2023/07/20 09:32:44;;;;;;;9.70;2.80;;;22.00;91.70;;;;;;5101725;28;20089;-71
2023/07/20 09:35:15;;;;;;;8.25;2.63;;;21.60;92.30;;;;;;5105694;28;20392;-70
2023/07/20 09:37:47;;;;;;;4.40;2.50;;;21.70;94.40;;;;;;5108115;27;20054;-69
2023/07/20 09:40:16;;;;;;;5.72;2.65;;;22.00;93.30;;;;;;5115927;27;20038;-70
2023/07/20 09:42:42;;;;;;;4.18;2.17;;;22.10;93.50;;;;;;5107970;28;20084;-70
2023/07/20 09:45:08;;;;;;;6.47;2.55;;;22.20;93.50;;;;;;5107979;28;20486;-70
2023/07/20 09:47:36;;;;;;;6.93;2.33;;;22.20;92.90;;;;;;5089530;28;20035;-72
2023/07/20 09:50:03;;;;;;;8.38;2.70;;;22.40;92.90;;;;;;5108559;28;20673;-72
2023/07/20 09:52:30;;;;;;;5.60;2.70;;;22.00;92.70;;;;;;5108398;28;20047;-72
2023/07/20 09:54:56;;;;;;;6.30;2.63;;;22.00;93.40;;;;;;5118008;28;20503;-71
2023/07/20 09:57:22;;;;;;;8.57;2.50;;;22.00;91.10;;;;;;5108578;28;20590;-70
2023/07/20 09:59:47;;;;;;;7.25;3.17;;;22.50;92.20;;;;;;5111954;28;20059;-70
2023/07/20 10:02:44;;;;;;;10.30;2.60;;;22.40;90.60;;;;;;5111954;28;20024;-72
2023/07/20 10:05:12;;;;;;;9.23;2.65;;;21.80;92.40;;;;;;5105015;28;20058;-72
2023/07/20 10:07:49;;;;;;;6.63;2.70;;;21.50;92.90;;;;;;5111476;27;20031;-72
2023/07/20 10:10:19;;;;;;;6.38;2.53;;;21.30;92.30;;;;;;5112592;28;20027;-72
2023/07/20 10:12:47;;;;;;;4.72;2.80;;;21.20;93.10;;;;;;5111146;28;20084;-71
2023/07/20 10:15:28;;;;;;;8.60;2.75;;;21.20;93.60;;;;;;5112241;28;20617;-72
2023/07/20 10:17:59;;;;;;;6.55;2.50;;;21.00;92.70;;;;;;5111843;28;20595;-72
2023/07/20 10:20:26;;;;;;;4.57;2.30;;;21.00;93.70;;;;;;5112671;28;20044;-71
2023/07/20 10:22:54;;;;;;;4.68;2.60;;;21.80;93.60;;;;;;5114579;27;20097;-70
2023/07/20 10:25:24;;;;;;;4.20;2.03;;;22.50;92.50;;;;;;5116519;27;20111;-70
2023/07/20 10:27:50;;;;;;;5.90;2.45;;;23.00;90.20;;;;;;5111861;28;20063;-71
2023/07/20 10:30:17;;;;;;;5.22;2.40;;;23.10;87.40;;;;;;5101079;28;20070;-70
2023/07/20 10:32:44;;;;;;;5.65;2.70;;;23.10;90.00;;;;;;5112365;27;20031;-70
2023/07/20 10:35:14;;;;;;;9.43;2.58;;;23.20;86.60;;;;;;5114010;27;20081;-72
2023/07/20 10:37:49;;;;;;;;;;;23.30;86.20;;;;;;5117501;27;20028;-71
2023/07/20 10:40:33;;;;;;;4.45;2.15;;;23.40;87.50;;;;;;5111915;28;19915;-70
2023/07/20 10:43:08;;;;;;;5.45;2.40;;;23.80;86.50;;;;;;5110059;28;20750;-71
2023/07/20 10:45:47;;;;;;;8.23;2.35;;;23.70;85.00;;;;;;5110002;28;20126;-71
2023/07/20 10:48:19;;;;;;;4.80;2.33;;;23.40;86.20;;;;;;5111890;28;20083;-70
2023/07/20 10:50:45;;;;;;;7.93;2.78;;;23.60;88.30;;;;;;5103404;28;20278;-70
2023/07/20 10:53:20;;;;;;;4.35;2.47;;;23.40;88.30;;;;;;5113170;27;20024;-72
2023/07/20 10:55:50;;;;;;;5.03;2.22;;;23.70;89.30;;;;;;5118391;27;20027;-71
2023/07/20 10:58:16;;;;;;;3.28;2.35;;;24.30;89.30;;;;;;5094253;28;20031;-71
2023/07/20 11:01:00;;;;;;;9.75;2.40;;;24.50;87.30;;;;;;5110717;28;20050;-70
2023/07/20 11:03:40;;;;;;;6.07;2.45;;;24.20;87.40;;;;;;5110843;28;20047;-71
2023/07/20 11:06:24;;;;;;;4.10;2.40;;;23.90;85.50;;;;;;5103901;28;20088;-72
2023/07/20 11:08:56;;;;;;;4.22;2.22;;;24.00;87.90;;;;;;5108947;28;20510;-71
2023/07/20 11:11:26;;;;;;;2.92;1.98;;;24.40;82.70;;;;;;5111153;28;20076;-72
2023/07/20 11:13:55;;;;;;;4.30;2.17;;;24.30;81.00;;;;;;5109067;28;20040;-71
2023/07/20 11:16:51;;;;;;;10.07;2.67;;;24.50;79.90;;;;;;5092989;28;20824;-71
2023/07/20 11:19:26;;;;;;;5.07;2.17;;;24.60;80.60;;;;;;5104302;28;20032;-71
2023/07/20 11:21:54;;;;;;;4.25;2.22;;;24.30;80.40;;;;;;5111270;27;20476;-72
2023/07/20 11:24:20;;;;;;;2.83;1.95;;;24.20;80.70;;;;;;5107613;27;20039;-72
2023/07/20 11:26:47;;;;;;;6.47;2.05;;;24.60;81.60;;;;;;5114411;27;20041;-72
2023/07/20 11:29:14;;;;;;;12.43;2.30;;;24.00;79.60;;;;;;5111399;28;20085;-72
2023/07/20 11:31:41;;;;;;;3.28;1.95;;;23.50;81.30;;;;;;5112353;27;20068;-70
2023/07/20 11:34:11;;;;;;;6.05;2.30;;;23.70;82.80;;;;;;5110800;27;20039;-71
2023/07/20 11:36:38;;;;;;;4.72;2.40;;;23.90;79.40;;;;;;5110894;28;20039;-70
2023/07/20 11:39:04;;;;;;;8.10;2.25;;;24.10;81.90;;;;;;5110140;28;20039;-70
2023/07/20 11:41:31;;;;;;;3.20;2.30;;;24.30;78.90;;;;;;5110618;28;20038;-70
2023/07/20 11:43:57;;;;;;;4.28;2.38;;;24.50;76.40;;;;;;5109558;28;20031;-72
2023/07/20 11:46:23;;;;;;;4.00;2.35;;;24.00;79.00;;;;;;5111758;27;20106;-71
2023/07/20 11:48:48;;;;;;;2.40;2.00;;;23.50;79.90;;;;;;5109753;28;20514;-71
2023/07/20 11:51:17;;;;;;;8.20;2.28;;;23.00;80.30;;;;;;5110532;28;20372;-70
2023/07/20 11:53:46;;;;;;;4.63;2.40;;;22.80;84.90;;;;;;5112106;27;20065;-70
2023/07/20 11:56:12;;;;;;;8.43;2.40;;;22.80;85.40;;;;;;5111441;27;20142;-71
2023/07/20 11:58:45;;;;;;;4.68;1.92;;;23.10;81.50;;;;;;5109597;28;20112;-70
2023/07/20 12:01:13;;;;;;;2.70;1.65;;;23.70;80.30;;;;;;5110522;28;20028;-71
2023/07/20 12:03:39;;;;;;;6.32;2.05;;;24.10;76.80;;;;;;5110387;28;20039;-71
2023/07/20 12:06:09;;;;;;;6.50;2.30;;;24.20;76.40;;;;;;5109674;28;20023;-71
2023/07/20 12:08:34;;;;;;;4.90;1.90;;;24.40;77.90;;;;;;5110220;28;20035;-72
2023/07/20 12:11:00;;;;;;;4.43;1.63;;;25.00;77.30;;;;;;5109656;28;20110;-70
2023/07/20 12:13:41;;;;;;;3.92;2.00;;;25.60;75.20;;;;;;5109572;27;20034;-70
2023/07/20 12:16:13;;;;;;;4.60;1.85;;;25.90;70.00;;;;;;5110950;27;20023;-70
2023/07/20 12:18:39;;;;;;;5.45;2.10;;;25.40;72.30;;;;;;5110295;28;20043;-71
2023/07/20 12:21:07;;;;;;;3.80;2.05;;;25.00;70.60;;;;;;5108841;28;20036;-73
2023/07/20 12:23:40;;;;;;;3.72;1.98;;;25.00;73.30;;;;;;5111141;27;20482;-72
2023/07/20 12:26:10;;;;;;;4.40;1.90;;;25.00;74.10;;;;;;5092055;28;20039;-72
2023/07/20 12:28:42;;;;;;;2.95;1.70;;;25.50;75.80;;;;;;5109826;27;20114;-70
2023/07/20 12:31:09;;;;;;;3.15;1.50;;;26.10;68.10;;;;;;5090497;28;20075;-72
2023/07/20 12:33:35;;;;;;;4.38;1.85;;;26.30;71.60;;;;;;5109673;28;20476;-71
2023/07/20 12:36:01;;;;;;;4.30;1.85;;;26.30;67.90;;;;;;5108478;28;20038;-72
2023/07/20 12:38:28;;;;;;;4.38;1.88;;;26.20;70.30;;;;;;5112832;27;20055;-70
2023/07/20 12:40:57;;;;;;;4.28;1.73;;;26.10;69.50;;;;;;5108731;28;20110;-70
2023/07/20 12:43:22;;;;;;;5.65;1.75;;;26.00;65.80;;;;;;5109350;28;20036;-71
2023/07/20 12:45:48;;;;;;;5.40;1.85;;;26.20;65.80;;;;;;5110777;27;20038;-70
2023/07/20 12:48:14;;;;;;;4.53;1.98;;;26.10;68.50;;;;;;5109062;28;20023;-70
2023/07/20 12:50:39;;;;;;;2.38;1.85;;;25.90;65.00;;;;;;5109181;28;20027;-71